createdAt,value
2018-03-26T00:03:25.100Z,26.93
2018-03-26T00:08:27.627Z,29.33
2018-03-26T00:13:30.162Z,30.57
2018-03-26T00:18:32.707Z,31.37
2018-03-26T00:23:35.229Z,31.23
2018-03-26T00:28:37.758Z,33.10
2018-03-26T00:33:40.306Z,31.77
2018-03-26T00:38:42.850Z,32.17
2018-03-26T00:43:46.150Z,31.00
2018-03-26T00:48:48.694Z,40.07
2018-03-26T00:53:51.225Z,33.40
2018-03-26T00:58:53.774Z,31.33
2018-03-26T01:03:56.307Z,35.00
2018-03-26T01:08:58.854Z,37.43
2018-03-26T01:14:02.256Z,31.67
2018-03-26T01:19:04.781Z,40.37
2018-03-26T01:24:07.301Z,30.70
2018-03-26T01:29:09.848Z,35.40
2018-03-26T01:34:12.477Z,33.57
2018-03-26T01:39:15.001Z,31.43
2018-03-26T01:44:17.533Z,34.80
2018-03-26T01:49:20.073Z,33.30
2018-03-26T01:54:22.618Z,34.10
2018-03-26T01:59:25.149Z,35.57
2018-03-26T02:04:28.461Z,33.83
2018-03-26T02:09:31.058Z,40.43
2018-03-26T02:14:33.586Z,29.37
2018-03-26T02:19:36.119Z,34.07
2018-03-26T02:24:38.754Z,37.57
2018-03-26T02:29:41.286Z,31.93
2018-03-26T02:34:43.818Z,34.50
2018-03-26T02:39:46.366Z,32.80
2018-03-26T02:44:49.675Z,39.60
2018-03-26T02:49:52.977Z,40.47
2018-03-26T02:54:55.516Z,34.87
2018-03-26T02:59:58.054Z,38.43
2018-03-26T03:05:00.602Z,38.93
2018-03-26T03:10:03.150Z,53.53
2018-03-26T03:15:05.696Z,42.70
2018-03-26T03:20:08.221Z,37.97
2018-03-26T03:25:10.790Z,39.27
2018-03-26T03:30:13.331Z,42.20
2018-03-26T03:35:15.874Z,40.47
2018-03-26T03:40:18.394Z,40.70
2018-03-26T03:45:20.930Z,37.00
2018-03-26T03:50:23.474Z,41.53
2018-03-26T03:55:26.004Z,35.87
2018-03-26T04:00:28.534Z,45.33
2018-03-26T04:05:31.096Z,44.57
2018-03-26T04:10:33.626Z,41.30
2018-03-26T04:15:36.166Z,33.13
2018-03-26T04:20:38.701Z,44.40
2018-03-26T04:25:41.225Z,34.00
2018-03-26T04:30:43.769Z,44.10
2018-03-26T04:35:46.297Z,37.77
2018-03-26T04:40:48.863Z,42.90
2018-03-26T04:45:51.398Z,42.90
2018-03-26T04:50:53.946Z,38.00
2018-03-26T04:55:56.544Z,40.67
2018-03-26T05:00:59.074Z,42.30
2018-03-26T05:06:01.617Z,43.33
2018-03-26T05:11:04.153Z,37.90
2018-03-26T05:16:06.703Z,40.63
2018-03-26T05:21:09.250Z,52.50
2018-03-26T05:26:11.785Z,48.47
2018-03-26T05:31:14.339Z,44.40
2018-03-26T05:36:17.637Z,48.20
2018-03-26T05:41:20.182Z,48.83
2018-03-26T05:46:22.702Z,51.20
2018-03-26T05:51:25.254Z,50.40
2018-03-26T05:56:27.793Z,46.07
2018-03-26T06:01:30.389Z,64.80
2018-03-26T06:06:32.947Z,43.83
2018-03-26T06:11:35.490Z,43.43
2018-03-26T06:25:39.286Z,57.63
2018-03-26T06:30:42.600Z,50.50
2018-03-26T06:35:45.888Z,48.93
2018-03-26T06:40:48.445Z,59.77
2018-03-26T06:45:51.009Z,47.47
2018-03-26T06:50:54.349Z,53.10
2018-03-26T06:55:56.882Z,44.67
2018-03-26T07:00:59.427Z,51.97
2018-03-26T07:06:02.242Z,42.30
2018-03-26T07:11:04.776Z,48.20
2018-03-26T07:16:07.412Z,48.03
2018-03-26T07:21:09.962Z,59.27
2018-03-26T07:26:12.485Z,49.60
2018-03-26T07:31:15.038Z,52.57
2018-03-26T07:36:17.573Z,54.27
2018-03-26T07:41:20.168Z,48.67
2018-03-26T07:46:22.686Z,45.10
2018-03-26T07:51:25.237Z,50.10
2018-03-26T07:56:27.767Z,52.90
2018-03-26T08:01:30.314Z,51.57
2018-03-26T08:06:32.860Z,54.33
2018-03-26T08:11:35.403Z,52.83
2018-03-26T08:16:37.945Z,50.27
2018-03-26T08:21:40.491Z,47.90
2018-03-26T08:26:43.033Z,54.23
2018-03-26T08:31:45.586Z,62.90
2018-03-26T08:36:48.165Z,60.60
2018-03-26T08:41:50.708Z,55.47
2018-03-26T08:46:53.246Z,60.20
2018-03-26T08:51:55.807Z,55.97
2018-03-26T08:56:59.128Z,62.87
2018-03-26T09:02:01.680Z,71.27
2018-03-26T09:07:04.214Z,75.63
2018-03-26T09:12:06.762Z,54.97
2018-03-26T09:17:09.316Z,67.83
2018-03-26T09:22:12.625Z,61.20
2018-03-26T09:27:15.938Z,71.13
2018-03-26T09:32:18.498Z,65.00
2018-03-26T09:37:21.139Z,71.57
2018-03-26T09:42:23.681Z,63.53
2018-03-26T09:47:26.227Z,62.80
2018-03-26T09:52:28.796Z,71.10
2018-03-26T09:57:31.362Z,57.27
2018-03-26T10:02:33.913Z,56.33
2018-03-26T10:07:36.469Z,60.83
2018-03-26T10:12:39.094Z,65.97
2018-03-26T10:17:41.662Z,64.00
2018-03-26T10:22:44.214Z,65.93
2018-03-26T10:27:46.769Z,59.03
2018-03-26T10:32:49.318Z,65.83
2018-03-26T10:37:51.869Z,58.03
2018-03-26T10:42:54.420Z,53.80
2018-03-26T10:47:57.465Z,57.60
2018-03-26T10:52:59.998Z,51.93
2018-03-26T10:58:02.550Z,64.23
2018-03-26T11:03:05.138Z,64.10
2018-03-26T11:08:07.654Z,59.97
2018-03-26T11:13:10.206Z,60.97
2018-03-26T11:18:12.747Z,61.07
2018-03-26T11:23:15.307Z,52.47
2018-03-26T11:28:17.850Z,57.40
2018-03-26T11:33:20.399Z,54.47
2018-03-26T11:38:22.944Z,66.77
2018-03-26T11:43:25.478Z,55.37
2018-03-26T11:48:28.039Z,66.80
2018-03-26T11:53:30.602Z,64.80
2018-03-26T11:58:33.142Z,58.50
2018-03-26T12:03:35.699Z,57.80
2018-03-26T12:08:38.240Z,57.57
2018-03-26T12:13:40.798Z,66.97
2018-03-26T12:18:43.356Z,64.30
2018-03-26T12:23:57.734Z,66.70
2018-03-26T12:29:12.014Z,52.00
2018-03-26T12:34:26.435Z,65.63
2018-03-26T12:39:28.993Z,66.67
2018-03-26T12:44:43.343Z,63.07
2018-03-26T12:49:45.905Z,54.67
2018-03-26T12:54:48.467Z,63.53
2018-03-26T12:59:51.002Z,55.80
2018-03-26T13:04:53.548Z,49.07
2018-03-26T13:09:56.106Z,47.97
2018-03-26T13:14:58.621Z,47.33
2018-03-26T13:20:01.175Z,46.63
2018-03-26T13:25:04.494Z,47.50
2018-03-26T13:30:07.063Z,45.27
2018-03-26T13:35:09.626Z,49.40
2018-03-26T13:40:12.183Z,32.60
2018-03-26T13:45:14.734Z,40.30
2018-03-26T13:50:17.298Z,30.83
2018-03-26T13:55:19.847Z,40.43
2018-03-26T14:00:22.405Z,37.53
2018-03-26T14:05:24.944Z,33.97
2018-03-26T14:10:39.364Z,42.93
2018-03-26T14:15:53.757Z,36.67
2018-03-26T14:20:56.309Z,52.43
2018-03-26T14:25:58.841Z,42.77
2018-03-26T14:31:01.378Z,39.53
2018-03-26T14:36:03.934Z,40.97
2018-03-26T14:41:06.509Z,38.30
2018-03-26T14:46:09.063Z,39.40
2018-03-26T14:51:11.620Z,39.40
2018-03-26T14:56:14.166Z,33.97
2018-03-26T15:01:16.725Z,38.03
2018-03-26T15:06:19.268Z,35.90
2018-03-26T15:11:21.829Z,37.80
2018-03-26T15:16:24.413Z,33.50
2018-03-26T15:21:26.959Z,41.83
2018-03-26T15:26:29.538Z,36.80
2018-03-26T15:31:32.838Z,36.90
2018-03-26T15:36:35.388Z,37.17
2018-03-26T15:41:37.970Z,40.10
2018-03-26T15:46:40.513Z,31.87
2018-03-26T15:51:43.084Z,54.83
2018-03-26T15:56:45.631Z,40.63
2018-03-26T16:01:48.182Z,38.27
2018-03-26T16:06:50.750Z,39.30
2018-03-26T16:11:53.514Z,41.87
2018-03-26T16:16:56.073Z,53.53
2018-03-26T16:21:58.632Z,39.63
2018-03-26T16:27:01.454Z,42.63
2018-03-26T16:32:04.022Z,46.93
2018-03-26T16:37:07.948Z,44.20
2018-03-26T16:42:35.175Z,44.40
2018-03-26T16:47:37.708Z,47.67
2018-03-26T16:52:40.316Z,44.80
2018-03-26T16:57:42.857Z,45.70
2018-03-26T17:02:45.426Z,47.07
2018-03-26T17:07:47.964Z,51.97
2018-03-26T17:12:50.522Z,44.83
2018-03-26T17:17:53.065Z,43.77
2018-03-26T17:22:56.133Z,46.87
2018-03-26T17:27:58.678Z,57.87
2018-03-26T17:33:01.377Z,51.37
2018-03-26T17:38:03.922Z,41.37
2018-03-26T17:43:06.472Z,38.67
2018-03-26T17:48:09.016Z,39.43
2018-03-26T17:53:11.561Z,32.63
2018-03-26T17:58:14.863Z,35.03
2018-03-26T18:03:17.443Z,41.17
2018-03-26T18:08:20.046Z,38.40
2018-03-26T18:13:22.590Z,34.80
2018-03-26T18:18:25.151Z,39.97
2018-03-26T18:23:27.741Z,42.67
2018-03-26T18:28:30.327Z,42.07
2018-03-26T18:33:32.877Z,42.33
2018-03-26T18:38:35.472Z,41.83
2018-03-26T18:43:38.020Z,39.17
2018-03-26T18:48:40.578Z,36.20
2018-03-26T18:53:43.135Z,35.00
2018-03-26T18:58:45.743Z,42.03
2018-03-26T19:03:48.514Z,37.20
2018-03-26T19:08:51.875Z,41.87
2018-03-26T19:13:54.427Z,38.33
2018-03-26T19:18:58.329Z,46.33
2018-03-26T19:24:00.894Z,35.10
2018-03-26T19:29:03.477Z,42.33
2018-03-26T19:34:06.018Z,40.37
2018-03-26T19:39:08.617Z,46.70
2018-03-26T19:44:11.173Z,52.43
2018-03-26T19:49:13.737Z,49.27
2018-03-26T19:54:17.053Z,39.47
2018-03-26T19:59:20.703Z,42.20
2018-03-26T20:04:23.271Z,52.63
2018-03-26T20:09:25.852Z,49.57
2018-03-26T20:14:28.403Z,60.00
2018-03-26T20:19:30.986Z,53.87
2018-03-26T20:24:33.554Z,52.93
2018-03-26T20:29:36.098Z,52.43
2018-03-26T20:34:38.641Z,48.37
2018-03-26T20:39:41.208Z,56.80
2018-03-26T20:44:43.764Z,54.67
2018-03-26T20:49:46.337Z,47.07
2018-03-26T20:54:48.908Z,54.50
2018-03-26T20:59:51.570Z,58.53
2018-03-26T21:04:54.111Z,52.80
2018-03-26T21:09:56.694Z,58.50
2018-03-26T21:14:59.470Z,54.00
2018-03-26T21:20:02.034Z,46.73
2018-03-26T21:25:04.643Z,56.20
2018-03-26T21:30:07.163Z,50.03
2018-03-26T21:35:09.714Z,54.13
2018-03-26T21:40:12.334Z,55.90
2018-03-26T21:45:14.881Z,55.07
2018-03-26T21:50:17.478Z,49.43
2018-03-26T21:55:20.042Z,55.73
2018-03-26T22:00:22.616Z,52.37
2018-03-26T22:05:25.181Z,62.30
2018-03-26T22:10:27.734Z,44.67
2018-03-26T22:15:30.290Z,49.70
2018-03-26T22:20:32.838Z,50.90
2018-03-26T22:25:35.394Z,46.37
2018-03-26T22:30:37.937Z,50.93
2018-03-26T22:35:40.497Z,59.37
2018-03-26T22:40:43.092Z,51.13
2018-03-26T22:45:45.654Z,57.43
2018-03-26T22:50:48.213Z,52.00
2018-03-26T22:55:50.762Z,60.97
2018-03-26T23:00:53.303Z,47.80
2018-03-26T23:05:55.849Z,60.63
2018-03-26T23:10:58.410Z,49.67
2018-03-26T23:16:00.970Z,50.00
2018-03-26T23:21:03.507Z,62.43
2018-03-26T23:26:06.186Z,51.80
2018-03-26T23:31:08.746Z,56.93
2018-03-26T23:36:11.319Z,58.37
2018-03-26T23:41:13.870Z,61.07
2018-03-26T23:46:16.464Z,56.10
2018-03-26T23:51:18.981Z,48.07
2018-03-26T23:56:21.538Z,50.70
